createdAt,value
2022-08-11T00:01:59.389Z,82.48
2022-08-11T00:04:32.011Z,83.04
2022-08-11T00:07:02.780Z,83.38
2022-08-11T00:09:39.531Z,83.57
2022-08-11T00:12:16.844Z,83.77
2022-08-11T00:14:46.707Z,83.75
2022-08-11T00:17:17.069Z,83.81
2022-08-11T00:20:14.390Z,83.77
2022-08-11T00:22:23.000Z,83.87
2022-08-11T00:24:56.193Z,84.19
2022-08-11T00:27:35.606Z,84.27
2022-08-11T00:30:07.360Z,84.17
2022-08-11T00:32:38.819Z,83.97
2022-08-11T00:35:51.316Z,84.05
2022-08-11T00:37:49.703Z,84.13
2022-08-11T00:40:32.607Z,84.58
2022-08-11T00:43:20.163Z,85.18
2022-08-11T00:46:25.535Z,84.88
2022-08-11T00:49:38.094Z,85.03
2022-08-11T00:52:35.460Z,85.45
2022-08-11T00:55:47.129Z,85.70
2022-08-11T00:58:44.447Z,85.97
2022-08-11T01:01:20.927Z,86.37
2022-08-11T01:04:26.222Z,86.62
2022-08-11T01:08:01.905Z,86.82
2022-08-11T01:10:57.799Z,86.71
2022-08-11T01:14:01.309Z,86.38
2022-08-11T01:17:09.697Z,86.23
2022-08-11T01:20:47.107Z,86.26
2022-08-11T01:23:17.462Z,86.41
2022-08-11T01:26:34.412Z,86.37
2022-08-11T01:29:27.331Z,86.53
2022-08-11T01:32:11.900Z,86.86
2022-08-11T01:35:06.229Z,86.87
2022-08-11T01:37:50.226Z,86.77
2022-08-11T01:40:57.133Z,86.65
2022-08-11T01:44:13.180Z,86.75
2022-08-11T01:47:19.068Z,86.41
2022-08-11T01:50:13.034Z,86.33
2022-08-11T01:52:59.669Z,86.25
2022-08-11T01:55:54.179Z,86.49
2022-08-11T01:58:43.539Z,86.72
2022-08-11T02:01:23.268Z,87.01
2022-08-11T02:04:17.755Z,86.55
2022-08-11T02:07:17.774Z,86.51
2022-08-11T02:09:58.587Z,86.37
2022-08-11T02:12:52.836Z,86.44
2022-08-11T02:15:37.124Z,86.34
2022-08-11T02:18:23.768Z,86.45
2022-08-11T02:21:15.114Z,86.32
2022-08-11T02:24:04.469Z,85.81
2022-08-11T02:26:45.805Z,85.58
2022-08-11T02:29:25.111Z,85.56
2022-08-11T02:32:33.664Z,85.33
2022-08-11T02:35:32.145Z,85.14
2022-08-11T02:38:17.840Z,85.28
2022-08-11T02:40:55.125Z,85.23
2022-08-11T02:43:41.655Z,85.10
2022-08-11T02:46:29.354Z,85.11
2022-08-11T02:49:34.369Z,85.14
2022-08-11T02:52:12.034Z,85.18
2022-08-11T02:54:58.380Z,85.07
2022-08-11T02:57:43.601Z,84.77
2022-08-11T03:00:15.163Z,84.56
2022-08-11T03:03:17.371Z,84.45
2022-08-11T03:06:09.999Z,84.33
2022-08-11T03:08:57.342Z,84.18
2022-08-11T03:12:11.804Z,84.23
2022-08-11T03:15:32.104Z,84.01
2022-08-11T03:18:26.706Z,84.21
2022-08-11T03:21:12.690Z,84.28
2022-08-11T03:24:12.924Z,84.11
2022-08-11T03:27:11.107Z,84.22
2022-08-11T03:30:03.329Z,84.21
2022-08-11T03:33:29.574Z,84.42
2022-08-11T03:36:16.005Z,84.23
2022-08-11T03:39:08.880Z,84.36
2022-08-11T03:42:04.379Z,84.53
2022-08-11T03:44:40.209Z,84.36
2022-08-11T03:47:55.206Z,84.27
2022-08-11T03:50:32.806Z,84.55
2022-08-11T03:53:51.741Z,84.51
2022-08-11T03:56:55.238Z,84.42
2022-08-11T04:00:02.544Z,84.24
2022-08-11T04:03:31.393Z,84.21
2022-08-11T04:06:41.608Z,84.30
2022-08-11T04:09:46.237Z,84.54
2022-08-11T04:12:37.998Z,84.75
2022-08-11T04:16:00.629Z,84.63
2022-08-11T04:18:51.725Z,84.45
2022-08-11T04:21:44.150Z,84.27
2022-08-11T04:24:50.489Z,84.37
2022-08-11T04:28:07.855Z,84.23
2022-08-11T04:31:02.376Z,84.40
2022-08-11T04:33:56.594Z,84.64
2022-08-11T04:37:15.974Z,84.80
2022-08-11T04:40:29.669Z,84.65
2022-08-11T04:43:23.948Z,84.53
2022-08-11T04:46:07.686Z,84.82
2022-08-11T04:49:36.888Z,85.12
2022-08-11T04:52:41.664Z,84.85
2022-08-11T04:56:00.903Z,84.40
2022-08-11T04:59:02.987Z,84.40
2022-08-11T05:01:43.105Z,84.00
2022-08-11T05:04:53.939Z,84.01
2022-08-11T05:07:57.834Z,84.16
2022-08-11T05:10:49.192Z,84.40
2022-08-11T05:13:55.809Z,84.52
2022-08-11T05:16:56.734Z,84.67
2022-08-11T05:19:44.715Z,84.43
2022-08-11T05:22:33.095Z,84.20
2022-08-11T05:26:42.671Z,84.30
2022-08-11T05:28:29.857Z,84.21
2022-08-11T05:31:31.262Z,84.14
2022-08-11T05:34:30.907Z,84.49
2022-08-11T05:37:27.295Z,84.41
2022-08-11T05:40:16.873Z,84.51
2022-08-11T05:43:09.570Z,84.63
2022-08-11T05:46:03.552Z,84.76
2022-08-11T05:48:52.402Z,85.01
2022-08-11T05:51:54.527Z,85.15
2022-08-11T05:54:29.768Z,85.40
2022-08-11T05:57:00.401Z,85.60
2022-08-11T05:59:29.521Z,85.63
2022-08-11T06:02:06.111Z,85.55
2022-08-11T06:04:36.115Z,85.68
2022-08-11T06:07:10.705Z,85.49
2022-08-11T06:09:51.020Z,85.55
2022-08-11T06:12:26.235Z,85.41
2022-08-11T06:14:56.426Z,85.37
2022-08-11T06:17:39.063Z,85.19
2022-08-11T06:20:07.310Z,84.86
2022-08-11T06:22:36.395Z,84.73
2022-08-11T06:25:06.650Z,84.39
2022-08-11T06:27:37.615Z,84.48
2022-08-11T06:30:10.338Z,84.26
2022-08-11T06:32:41.528Z,84.00
2022-08-11T06:35:27.754Z,83.94
2022-08-11T06:38:10.223Z,83.91
2022-08-11T06:41:11.823Z,83.35
2022-08-11T06:43:59.862Z,82.76
2022-08-11T06:46:33.754Z,82.65
2022-08-11T06:49:03.729Z,82.56
2022-08-11T06:51:34.759Z,82.41
2022-08-11T06:54:06.478Z,82.49
2022-08-11T06:57:26.291Z,82.44
2022-08-11T06:59:47.573Z,82.13
2022-08-11T07:02:31.045Z,82.09
2022-08-11T07:05:06.746Z,82.16
2022-08-11T07:08:34.175Z,82.04
2022-08-11T07:11:55.854Z,82.10
2022-08-11T07:14:45.674Z,82.06
2022-08-11T07:17:22.320Z,82.27
2022-08-11T07:20:16.839Z,82.27
2022-08-11T07:23:12.840Z,82.33
2022-08-11T07:26:01.604Z,82.32
2022-08-11T07:28:51.269Z,82.54
2022-08-11T07:31:37.462Z,82.65
2022-08-11T07:34:26.662Z,83.10
2022-08-11T07:36:58.513Z,83.97
2022-08-11T07:39:31.115Z,84.02
2022-08-11T07:42:00.685Z,84.39
2022-08-11T07:44:34.831Z,84.29
2022-08-11T07:47:19.156Z,84.15
2022-08-11T07:50:07.407Z,84.45
2022-08-11T07:52:38.486Z,84.49
2022-08-11T07:55:15.114Z,84.83
2022-08-11T07:58:19.426Z,84.79
2022-08-11T08:00:59.172Z,84.65
2022-08-11T08:03:54.019Z,84.46
2022-08-11T08:06:37.935Z,84.45
2022-08-11T08:09:25.898Z,84.09
2022-08-11T08:12:13.621Z,83.72
2022-08-11T08:15:01.663Z,82.98
2022-08-11T08:18:09.630Z,83.07
2022-08-11T08:20:23.107Z,82.96
2022-08-11T08:22:56.886Z,82.94
2022-08-11T08:25:27.486Z,82.61
2022-08-11T08:27:57.063Z,82.55
2022-08-11T08:30:46.611Z,82.30
2022-08-11T08:33:25.455Z,82.07
2022-08-11T08:35:59.463Z,82.03
2022-08-11T08:38:29.358Z,81.25
2022-08-11T08:41:00.312Z,81.09
2022-08-11T08:43:32.497Z,80.99
2022-08-11T08:46:01.706Z,81.07
2022-08-11T08:48:31.762Z,81.27
2022-08-11T08:51:27.247Z,80.74
2022-08-11T08:54:11.745Z,80.46
2022-08-11T08:56:42.094Z,80.00
2022-08-11T08:59:13.926Z,79.98
2022-08-11T09:02:06.551Z,79.55
2022-08-11T09:04:37.681Z,79.26
2022-08-11T09:07:12.499Z,79.12
2022-08-11T09:09:45.270Z,79.28
2022-08-11T09:12:14.555Z,79.14
2022-08-11T09:14:58.112Z,78.56
2022-08-11T09:17:29.875Z,78.54
2022-08-11T09:20:19.547Z,78.75
2022-08-11T09:25:58.173Z,79.13
2022-08-11T09:28:31.610Z,79.65
2022-08-11T09:31:00.893Z,80.18
2022-08-11T09:33:29.839Z,80.12
2022-08-11T09:36:01.014Z,79.84
2022-08-11T09:38:49.796Z,79.32
2022-08-11T09:41:19.997Z,79.24
2022-08-11T09:44:09.203Z,79.38
2022-08-11T09:46:40.992Z,78.76
2022-08-11T09:49:10.528Z,78.81
2022-08-11T09:51:41.279Z,79.20
2022-08-11T09:54:10.663Z,78.94
2022-08-11T09:57:03.275Z,78.73
2022-08-11T09:59:30.420Z,78.25
2022-08-11T10:02:01.599Z,77.99
2022-08-11T10:04:41.288Z,77.62
2022-08-11T10:07:10.964Z,77.47
2022-08-11T10:10:01.759Z,77.25
2022-08-11T10:12:37.096Z,77.10
2022-08-11T10:15:30.695Z,76.84
2022-08-11T10:18:36.040Z,75.97
2022-08-11T10:21:20.493Z,75.61
2022-08-11T10:24:10.585Z,75.63
2022-08-11T10:26:55.064Z,75.15
2022-08-11T10:29:54.541Z,75.02
2022-08-11T10:32:59.309Z,74.54
2022-08-11T10:35:21.028Z,74.33
2022-08-11T10:38:06.629Z,74.20
2022-08-11T10:40:24.629Z,73.47
2022-08-11T10:43:05.724Z,73.44
2022-08-11T10:45:59.740Z,73.10
2022-08-11T10:48:31.801Z,72.84
2022-08-11T10:51:24.557Z,72.32
2022-08-11T10:54:07.500Z,72.11
2022-08-11T10:56:57.918Z,72.17
2022-08-11T10:59:29.749Z,71.63
2022-08-11T11:01:59.271Z,71.45
2022-08-11T11:04:33.973Z,71.27
2022-08-11T11:07:14.604Z,71.38
2022-08-11T11:09:58.438Z,71.74
2022-08-11T11:12:53.364Z,71.90
2022-08-11T11:15:41.748Z,72.24
2022-08-11T11:18:17.956Z,72.23
2022-08-11T11:20:52.384Z,72.20
2022-08-11T11:23:28.847Z,72.17
2022-08-11T11:26:28.056Z,72.27
2022-08-11T11:29:48.128Z,72.04
2022-08-11T11:32:28.576Z,71.67
2022-08-11T11:35:17.942Z,71.54
2022-08-11T11:38:03.668Z,71.61
2022-08-11T11:40:22.559Z,71.52
2022-08-11T11:42:54.798Z,71.29
2022-08-11T11:45:25.251Z,71.71
2022-08-11T11:47:58.903Z,71.51
2022-08-11T11:50:32.751Z,71.27
2022-08-11T11:53:04.978Z,70.71
2022-08-11T11:55:35.366Z,70.48
2022-08-11T11:58:23.077Z,70.50
2022-08-11T12:01:11.734Z,70.35
2022-08-11T12:03:42.206Z,70.43
2022-08-11T12:06:14.451Z,70.14
2022-08-11T12:08:44.733Z,70.33
2022-08-11T12:11:33.803Z,69.84
2022-08-11T12:14:10.262Z,69.94
2022-08-11T12:16:38.907Z,70.12
2022-08-11T12:19:12.075Z,69.70
2022-08-11T12:21:43.739Z,69.88
2022-08-11T12:24:19.782Z,70.00
2022-08-11T12:27:15.172Z,69.91
2022-08-11T12:29:21.340Z,69.77
2022-08-11T12:31:50.983Z,69.51
2022-08-11T12:34:20.903Z,69.53
2022-08-11T12:37:01.469Z,69.39
2022-08-11T12:40:15.794Z,69.71
2022-08-11T12:42:43.514Z,69.66
2022-08-11T12:45:29.154Z,69.62
2022-08-11T12:48:59.636Z,69.61
2022-08-11T12:51:30.424Z,69.40
2022-08-11T12:54:11.748Z,69.20
2022-08-11T12:56:55.634Z,69.19
2022-08-11T12:59:43.702Z,69.15
2022-08-11T13:02:39.993Z,69.31
2022-08-11T13:05:11.235Z,69.82
2022-08-11T13:07:50.729Z,70.00
2022-08-11T13:10:16.902Z,70.00
2022-08-11T13:12:49.709Z,69.94
2022-08-11T13:15:24.080Z,69.95
2022-08-11T13:17:54.905Z,70.03
2022-08-11T13:20:24.879Z,70.40
2022-08-11T13:22:55.965Z,70.48
2022-08-11T13:25:26.740Z,70.59
2022-08-11T13:28:01.469Z,70.81
2022-08-11T13:30:50.489Z,70.84
2022-08-11T13:33:19.636Z,70.82
2022-08-11T13:35:50.663Z,70.59
2022-08-11T13:38:22.109Z,70.48
2022-08-11T13:40:56.079Z,70.53
2022-08-11T13:43:23.819Z,70.39
2022-08-11T13:45:55.323Z,70.15
2022-08-11T13:48:24.622Z,70.04
2022-08-11T13:51:12.129Z,69.60
2022-08-11T13:53:43.347Z,69.29
2022-08-11T13:56:12.963Z,68.44
2022-08-11T13:58:53.938Z,67.90
2022-08-11T14:02:19.835Z,68.04
2022-08-11T14:04:31.118Z,67.47
2022-08-11T14:06:46.788Z,67.07
2022-08-11T14:09:17.969Z,66.97
2022-08-11T14:12:22.402Z,66.86
2022-08-11T14:14:36.866Z,66.92
2022-08-11T14:17:08.374Z,66.75
2022-08-11T14:19:40.084Z,66.72
2022-08-11T14:22:09.797Z,66.72
2022-08-11T14:24:43.005Z,67.05
2022-08-11T14:28:25.954Z,67.21
2022-08-11T14:29:48.745Z,67.15
2022-08-11T14:32:15.528Z,66.84
2022-08-11T14:34:44.889Z,67.19
2022-08-11T14:37:21.785Z,67.34
2022-08-11T14:40:00.721Z,67.16
2022-08-11T14:42:45.981Z,67.45
2022-08-11T14:45:57.661Z,67.46
2022-08-11T14:48:09.213Z,67.75
2022-08-11T14:50:38.888Z,67.26
2022-08-11T14:53:11.582Z,67.35
2022-08-11T14:56:03.542Z,67.28
2022-08-11T14:58:34.106Z,67.01
2022-08-11T15:01:03.578Z,66.77
2022-08-11T15:03:36.067Z,66.62
2022-08-11T15:06:05.901Z,66.82
2022-08-11T15:08:57.023Z,66.90
2022-08-11T15:11:50.502Z,67.02
2022-08-11T15:14:21.628Z,67.15
2022-08-11T15:17:09.949Z,67.69
2022-08-11T15:19:47.112Z,67.87
2022-08-11T15:22:35.506Z,68.20
2022-08-11T15:25:05.738Z,68.61
2022-08-11T15:27:53.281Z,68.86
2022-08-11T15:30:40.912Z,69.05
2022-08-11T15:33:30.222Z,69.32
2022-08-11T15:36:18.088Z,69.49
2022-08-11T15:39:02.574Z,69.74
2022-08-11T15:41:58.467Z,69.91
2022-08-11T15:45:02.290Z,70.12
2022-08-11T15:47:18.845Z,70.16
2022-08-11T15:50:10.814Z,70.22
2022-08-11T15:52:22.687Z,70.21
2022-08-11T15:54:52.137Z,70.30
2022-08-11T15:57:41.293Z,70.41
2022-08-11T16:00:30.185Z,70.39
2022-08-11T16:03:17.918Z,70.35
2022-08-11T16:05:53.033Z,70.53
2022-08-11T16:08:32.752Z,70.48
2022-08-11T16:10:56.368Z,70.39
2022-08-11T16:13:26.581Z,70.43
2022-08-11T16:16:09.041Z,70.50
2022-08-11T16:18:57.368Z,70.59
2022-08-11T16:21:36.703Z,70.57
2022-08-11T16:24:08.011Z,70.60
2022-08-11T16:27:11.732Z,70.81
2022-08-11T16:29:11.668Z,71.01
2022-08-11T16:31:41.798Z,71.19
2022-08-11T16:34:12.917Z,71.28
2022-08-11T16:37:00.844Z,71.42
2022-08-11T16:39:31.380Z,71.55
2022-08-11T16:43:09.407Z,71.62
2022-08-11T16:45:09.512Z,71.74
2022-08-11T16:48:03.040Z,71.91
2022-08-11T16:50:13.322Z,72.08
2022-08-11T16:52:43.666Z,72.29
2022-08-11T16:55:13.476Z,72.53
2022-08-11T16:58:03.882Z,72.62
2022-08-11T17:00:36.620Z,72.72
2022-08-11T17:03:24.705Z,72.95
2022-08-11T17:06:12.658Z,73.24
2022-08-11T17:09:07.560Z,73.54
2022-08-11T17:12:00.616Z,73.70
2022-08-11T17:14:50.199Z,73.99
2022-08-11T17:17:29.255Z,74.15
2022-08-11T17:20:40.316Z,74.37
2022-08-11T17:22:51.979Z,74.60
2022-08-11T17:25:22.122Z,74.78
2022-08-11T17:27:52.758Z,75.12
2022-08-11T17:30:23.019Z,75.38
2022-08-11T17:33:10.913Z,75.53
2022-08-11T17:35:41.298Z,75.81
2022-08-11T17:38:18.591Z,76.08
2022-08-11T17:41:23.005Z,76.29
2022-08-11T17:44:05.858Z,76.39
2022-08-11T17:46:54.962Z,76.50
2022-08-11T17:49:25.249Z,76.60
2022-08-11T17:52:14.823Z,76.77
2022-08-11T17:55:06.096Z,76.88
2022-08-11T17:57:56.165Z,76.91
2022-08-11T18:00:26.323Z,76.96
2022-08-11T18:03:15.057Z,77.02
2022-08-11T18:05:46.496Z,77.09
2022-08-11T18:08:34.792Z,77.22
2022-08-11T18:12:06.479Z,77.27
2022-08-11T18:14:13.370Z,77.29
2022-08-11T18:17:05.567Z,77.35
2022-08-11T18:19:53.699Z,77.37
2022-08-11T18:22:44.775Z,77.41
2022-08-11T18:25:36.047Z,77.51
2022-08-11T18:28:28.111Z,77.59
2022-08-11T18:31:19.771Z,77.71
2022-08-11T18:34:12.981Z,77.83
2022-08-11T18:37:29.476Z,77.87
2022-08-11T18:40:25.515Z,77.91
2022-08-11T18:43:22.706Z,78.01
2022-08-11T18:46:11.159Z,78.26
2022-08-11T18:49:05.936Z,78.21
2022-08-11T18:51:56.038Z,78.19
2022-08-11T18:54:48.864Z,78.35
2022-08-11T18:57:49.737Z,78.45
2022-08-11T19:00:32.667Z,78.42
2022-08-11T19:03:21.073Z,78.44
2022-08-11T19:06:39.047Z,78.41
2022-08-11T19:09:03.522Z,78.40
2022-08-11T19:11:52.615Z,78.50
2022-08-11T19:14:42.064Z,78.55
2022-08-11T19:17:44.370Z,78.58
2022-08-11T19:20:24.960Z,78.65
2022-08-11T19:23:15.193Z,78.79
2022-08-11T19:26:04.554Z,78.90
2022-08-11T19:28:54.124Z,79.04
2022-08-11T19:31:44.971Z,79.20
2022-08-11T19:34:36.211Z,79.33
2022-08-11T19:37:25.873Z,79.44
2022-08-11T19:40:26.434Z,79.57
2022-08-11T19:43:23.585Z,79.63
2022-08-11T19:46:07.233Z,79.73
2022-08-11T19:48:55.472Z,79.75
2022-08-11T19:51:45.602Z,79.79
2022-08-11T19:54:34.861Z,79.89
2022-08-11T19:57:23.822Z,79.96
2022-08-11T20:00:13.517Z,80.03
2022-08-11T20:03:09.224Z,80.16
2022-08-11T20:06:00.033Z,80.21
2022-08-11T20:11:44.428Z,80.31
2022-08-11T20:14:33.165Z,80.43
2022-08-11T20:17:22.537Z,80.56
2022-08-11T20:20:11.088Z,80.62
2022-08-11T20:22:58.911Z,80.74
2022-08-11T20:25:46.677Z,80.78
2022-08-11T20:28:34.491Z,80.90
2022-08-11T20:31:24.621Z,80.96
2022-08-11T20:34:12.151Z,81.09
2022-08-11T20:37:01.107Z,81.12
2022-08-11T20:39:49.786Z,81.18
2022-08-11T20:42:38.398Z,81.25
2022-08-11T20:45:28.137Z,81.23
2022-08-11T20:48:15.908Z,81.20
2022-08-11T20:51:07.570Z,81.21
2022-08-11T20:53:59.823Z,81.25
2022-08-11T20:56:50.882Z,81.22
2022-08-11T20:59:56.388Z,81.28
2022-08-11T21:02:33.002Z,81.48
2022-08-11T21:05:22.455Z,81.52
2022-08-11T21:08:11.660Z,81.44
2022-08-11T21:11:02.096Z,81.39
2022-08-11T21:13:56.155Z,81.36
2022-08-11T21:16:49.799Z,81.50
2022-08-11T21:20:01.342Z,81.56
2022-08-11T21:22:59.657Z,81.55
2022-08-11T21:25:35.637Z,81.52
2022-08-11T21:28:25.302Z,81.46
2022-08-11T21:31:15.710Z,81.34
2022-08-11T21:34:04.593Z,81.25
2022-08-11T21:36:53.736Z,81.13
2022-08-11T21:39:43.439Z,80.93
2022-08-11T21:42:31.021Z,80.87
2022-08-11T21:45:18.661Z,80.75
2022-08-11T21:48:06.487Z,80.65
2022-08-11T21:50:54.965Z,80.58
2022-08-11T21:53:43.361Z,80.52
2022-08-11T21:56:33.414Z,80.50
2022-08-11T21:59:21.541Z,80.47
2022-08-11T22:02:12.771Z,80.49
2022-08-11T22:05:00.808Z,80.46
2022-08-11T22:07:49.355Z,80.38
2022-08-11T22:10:41.785Z,80.27
2022-08-11T22:13:28.013Z,80.28
2022-08-11T22:16:18.491Z,80.30
2022-08-11T22:19:06.673Z,80.29
2022-08-11T22:22:03.128Z,80.30
2022-08-11T22:24:47.573Z,80.20
2022-08-11T22:27:35.670Z,80.19
2022-08-11T22:30:27.304Z,80.24
2022-08-11T22:33:17.590Z,80.39
2022-08-11T22:36:08.397Z,80.41
2022-08-11T22:38:57.562Z,80.40
2022-08-11T22:41:45.434Z,80.50
2022-08-11T22:44:34.053Z,80.55
2022-08-11T22:47:22.336Z,80.67
2022-08-11T22:50:14.294Z,80.79
2022-08-11T22:53:02.687Z,80.88
2022-08-11T22:55:50.632Z,81.01
2022-08-11T22:58:41.058Z,81.08
2022-08-11T23:01:29.765Z,81.16
2022-08-11T23:04:19.251Z,81.17
2022-08-11T23:07:07.609Z,81.22
2022-08-11T23:09:55.973Z,81.35
2022-08-11T23:12:43.586Z,81.44
2022-08-11T23:15:33.259Z,81.53
2022-08-11T23:18:23.792Z,81.67
2022-08-11T23:21:12.561Z,81.74
2022-08-11T23:24:01.594Z,81.82
2022-08-11T23:26:49.931Z,81.93
2022-08-11T23:29:38.381Z,81.97
2022-08-11T23:32:26.528Z,82.07
2022-08-11T23:35:38.464Z,82.19
2022-08-11T23:38:03.679Z,82.35
2022-08-11T23:40:51.160Z,82.36
2022-08-11T23:43:40.884Z,82.52
2022-08-11T23:46:29.286Z,82.57
2022-08-11T23:49:21.094Z,82.65
2022-08-11T23:52:09.104Z,82.80
2022-08-11T23:54:56.997Z,82.86
2022-08-11T23:57:48.796Z,82.88
